createdAt,value
2018-06-12T00:01:32.636Z,4.40
2018-06-12T00:04:00.644Z,4.93
2018-06-12T00:06:28.697Z,4.80
2018-06-12T00:08:56.700Z,4.90
2018-06-12T00:11:24.724Z,5.20
2018-06-12T00:13:52.718Z,4.10
2018-06-12T00:16:20.728Z,4.20
2018-06-12T00:18:48.768Z,4.60
2018-06-12T00:21:16.844Z,5.10
2018-06-12T00:23:44.864Z,4.80
2018-06-12T00:26:12.888Z,4.60
2018-06-12T00:28:41.061Z,4.43
2018-06-12T00:31:09.120Z,5.07
2018-06-12T00:33:37.160Z,4.80
2018-06-12T00:36:05.164Z,5.43
2018-06-12T00:38:33.188Z,4.77
2018-06-12T00:41:01.240Z,4.40
2018-06-12T00:43:29.284Z,4.43
2018-06-12T00:45:58.317Z,5.37
2018-06-12T00:48:27.376Z,6.10
2018-06-12T00:50:55.384Z,5.43
2018-06-12T00:53:23.445Z,5.87
2018-06-12T00:55:51.408Z,5.13
2018-06-12T00:58:19.431Z,5.70
2018-06-12T01:00:47.454Z,5.67
2018-06-12T01:03:15.481Z,7.00
2018-06-12T01:05:43.540Z,7.10
2018-06-12T01:08:11.588Z,5.90
2018-06-12T01:10:39.568Z,6.23
2018-06-12T01:13:07.561Z,6.03
2018-06-12T01:15:35.562Z,6.53
2018-06-12T01:18:03.588Z,7.37
2018-06-12T01:20:31.896Z,6.73
2018-06-12T01:22:59.933Z,6.60
2018-06-12T01:25:28.005Z,4.20
2018-06-12T01:27:56.041Z,3.70
2018-06-12T01:30:24.071Z,3.80
2018-06-12T01:32:52.073Z,3.77
2018-06-12T01:35:20.123Z,3.30
2018-06-12T01:37:48.140Z,2.73
2018-06-12T01:40:16.158Z,4.23
2018-06-12T01:42:44.156Z,2.53
2018-06-12T01:45:12.145Z,3.73
2018-06-12T01:47:40.164Z,2.67
2018-06-12T01:50:08.176Z,2.60
2018-06-12T01:52:36.183Z,2.93
2018-06-12T01:55:04.185Z,3.17
2018-06-12T01:57:32.197Z,3.00
2018-06-12T02:00:00.168Z,3.30
2018-06-12T02:02:28.182Z,2.83
2018-06-12T02:04:56.185Z,2.30
2018-06-12T02:07:24.217Z,2.50
2018-06-12T02:09:52.209Z,3.60
2018-06-12T02:12:20.200Z,2.90
2018-06-12T02:14:48.202Z,2.80
2018-06-12T02:17:16.234Z,2.60
2018-06-12T02:19:44.229Z,2.47
2018-06-12T02:22:12.292Z,2.30
2018-06-12T02:24:40.330Z,2.30
2018-06-12T02:27:09.036Z,3.87
2018-06-12T02:29:37.092Z,2.50
2018-06-12T02:32:05.320Z,2.97
2018-06-12T02:34:33.344Z,2.50
2018-06-12T02:37:01.366Z,4.70
2018-06-12T02:39:29.380Z,2.50
2018-06-12T02:41:57.384Z,2.40
2018-06-12T02:44:25.410Z,2.80
2018-06-12T02:46:53.456Z,3.10
2018-06-12T02:49:21.457Z,3.10
2018-06-12T02:51:49.453Z,4.17
2018-06-12T02:54:17.463Z,3.77
2018-06-12T02:56:45.468Z,3.30
2018-06-12T02:59:13.492Z,4.00
2018-06-12T03:01:41.528Z,4.23
2018-06-12T03:04:09.545Z,3.60
2018-06-12T03:06:37.537Z,3.40
2018-06-12T03:09:08.340Z,4.03
2018-06-12T03:11:36.390Z,3.90
2018-06-12T03:14:04.388Z,3.43
2018-06-12T03:16:32.415Z,3.60
2018-06-12T03:19:00.924Z,4.07
2018-06-12T03:21:28.912Z,4.03
2018-06-12T03:23:56.921Z,3.67
2018-06-12T03:26:24.921Z,3.37
2018-06-12T03:28:52.977Z,3.10
2018-06-12T03:31:21.025Z,3.77
2018-06-12T03:33:49.038Z,2.90
2018-06-12T03:36:17.040Z,3.33
2018-06-12T03:38:45.089Z,2.83
2018-06-12T03:41:13.101Z,3.03
2018-06-12T03:43:41.144Z,3.30
2018-06-12T03:46:09.157Z,3.20
2018-06-12T03:48:37.252Z,2.50
2018-06-12T03:51:05.339Z,3.33
2018-06-12T03:53:33.418Z,2.73
2018-06-12T03:56:01.454Z,2.53
2018-06-12T03:58:29.473Z,3.40
2018-06-12T04:00:58.496Z,3.17
2018-06-12T04:03:26.521Z,3.23
2018-06-12T04:05:54.534Z,3.07
2018-06-12T04:08:22.616Z,3.10
2018-06-12T04:10:50.598Z,3.60
2018-06-12T04:13:18.576Z,3.00
2018-06-12T04:15:46.573Z,3.47
2018-06-12T04:18:14.633Z,3.30
2018-06-12T04:20:42.680Z,3.23
2018-06-12T04:23:10.660Z,2.93
2018-06-12T04:25:38.677Z,3.70
2018-06-12T04:28:06.643Z,3.13
2018-06-12T04:30:34.643Z,3.60
2018-06-12T04:33:02.642Z,3.17
2018-06-12T04:35:30.664Z,3.03
2018-06-12T04:37:58.692Z,2.80
2018-06-12T04:40:26.686Z,4.00
2018-06-12T04:42:54.681Z,3.43
2018-06-12T04:45:22.654Z,3.20
2018-06-12T04:47:50.667Z,3.37
2018-06-12T04:50:18.676Z,3.10
2018-06-12T04:52:46.724Z,3.43
2018-06-12T04:55:14.749Z,3.30
2018-06-12T04:57:42.792Z,3.40
2018-06-12T05:00:10.828Z,2.87
2018-06-12T05:02:38.842Z,2.80
2018-06-12T05:05:06.840Z,2.50
2018-06-12T05:07:34.830Z,2.93
2018-06-12T05:10:02.900Z,3.00
2018-06-12T05:12:30.985Z,3.87
2018-06-12T05:14:59.004Z,2.60
2018-06-12T05:17:27.026Z,2.50
2018-06-12T05:19:55.027Z,3.03
2018-06-12T05:22:23.053Z,3.37
2018-06-12T05:24:51.133Z,3.20
2018-06-12T05:27:19.121Z,2.50
2018-06-12T05:29:47.172Z,3.60
2018-06-12T05:32:15.163Z,3.10
2018-06-12T05:34:43.209Z,2.57
2018-06-12T05:37:11.217Z,2.43
2018-06-12T05:39:39.313Z,2.40
2018-06-12T05:42:07.329Z,2.83
2018-06-12T05:44:35.370Z,2.87
2018-06-12T05:47:03.361Z,2.47
2018-06-12T05:49:31.396Z,3.23
2018-06-12T05:51:59.409Z,3.10
2018-06-12T05:54:27.422Z,2.57
2018-06-12T05:56:55.402Z,2.03
2018-06-12T05:59:23.377Z,1.90
2018-06-12T06:01:51.369Z,2.17
2018-06-12T06:04:20.072Z,2.20
2018-06-12T06:06:48.120Z,2.60
2018-06-12T06:09:16.161Z,2.50
2018-06-12T06:11:44.160Z,2.40
2018-06-12T06:14:12.213Z,2.67
2018-06-12T06:16:40.275Z,2.53
2018-06-12T06:19:08.282Z,3.60
2018-06-12T06:21:36.288Z,3.93
2018-06-12T06:24:04.477Z,1.83
2018-06-12T06:26:32.961Z,2.20
2018-06-12T06:29:01.113Z,2.63
2018-06-12T06:31:29.121Z,2.50
2018-06-12T06:33:57.158Z,2.30
2018-06-12T06:36:25.241Z,2.00
2018-06-12T06:38:53.261Z,2.60
2018-06-12T06:41:21.313Z,2.90
2018-06-12T06:43:49.329Z,1.97
2018-06-12T06:46:17.351Z,2.70
2018-06-12T06:48:45.464Z,2.40
2018-06-12T06:51:13.504Z,3.90
2018-06-12T06:53:41.581Z,2.30
2018-06-12T06:56:09.596Z,3.23
2018-06-12T06:58:37.620Z,2.50
2018-06-12T07:01:05.635Z,2.73
2018-06-12T07:03:33.732Z,2.80
2018-06-12T07:06:01.741Z,2.70
2018-06-12T07:08:29.733Z,2.70
2018-06-12T07:10:57.778Z,2.63
2018-06-12T07:13:25.769Z,2.43
2018-06-12T07:15:53.857Z,2.17
2018-06-12T07:18:21.864Z,2.90
2018-06-12T07:21:22.977Z,2.40
2018-06-12T07:23:51.001Z,2.57
2018-06-12T07:26:19.012Z,2.10
2018-06-12T07:28:47.009Z,2.30
2018-06-12T07:31:15.080Z,2.27
2018-06-12T07:33:43.078Z,2.33
2018-06-12T07:36:11.104Z,2.20
2018-06-12T07:38:39.099Z,2.37
2018-06-12T07:41:07.112Z,2.20
2018-06-12T07:43:35.250Z,2.00
2018-06-12T07:46:03.272Z,2.40
2018-06-12T07:48:31.389Z,2.03
2018-06-12T07:50:59.394Z,2.33
2018-06-12T07:53:27.384Z,1.93
2018-06-12T07:55:55.353Z,1.93
2018-06-12T07:58:23.380Z,1.93
2018-06-12T08:00:51.450Z,1.63
2018-06-12T08:03:19.461Z,2.43
2018-06-12T08:05:47.472Z,1.50
2018-06-12T08:08:15.474Z,2.20
2018-06-12T08:10:43.531Z,2.10
2018-06-12T08:13:11.567Z,2.53
2018-06-12T08:15:39.549Z,1.90
2018-06-12T08:18:07.552Z,2.07
2018-06-12T08:20:35.555Z,1.73
2018-06-12T08:23:03.596Z,1.93
2018-06-12T08:25:31.721Z,2.00
2018-06-12T08:27:59.784Z,1.83
2018-06-12T08:30:27.962Z,2.00
2018-06-12T08:32:55.890Z,1.97
2018-06-12T08:35:23.941Z,1.83
2018-06-12T08:37:51.945Z,1.70
2018-06-12T08:40:19.972Z,1.77
2018-06-12T08:42:47.997Z,2.03
2018-06-12T08:45:16.014Z,2.13
2018-06-12T08:47:44.026Z,2.17
2018-06-12T08:50:12.097Z,1.67
2018-06-12T08:52:40.143Z,1.70
2018-06-12T08:55:08.119Z,1.97
2018-06-12T08:57:36.148Z,1.50
2018-06-12T09:00:04.717Z,1.50
2018-06-12T09:02:32.772Z,1.93
2018-06-12T09:05:00.796Z,1.63
2018-06-12T09:07:28.825Z,1.50
2018-06-12T09:09:56.888Z,1.80
2018-06-12T09:12:25.604Z,1.60
2018-06-12T09:14:53.669Z,1.90
2018-06-12T09:17:21.967Z,2.20
2018-06-12T09:19:49.981Z,1.97
2018-06-12T09:22:18.028Z,1.60
2018-06-12T09:24:46.129Z,1.63
2018-06-12T09:27:14.157Z,1.70
2018-06-12T09:29:42.164Z,3.63
2018-06-12T09:32:10.153Z,1.97
2018-06-12T09:34:38.151Z,2.50
2018-06-12T09:37:06.140Z,1.80
2018-06-12T09:39:34.152Z,2.10
2018-06-12T09:42:02.177Z,2.20
2018-06-12T09:44:30.597Z,2.10
2018-06-12T09:46:58.612Z,3.50
2018-06-12T09:49:26.636Z,1.50
2018-06-12T09:51:55.256Z,1.90
2018-06-12T09:54:23.565Z,1.77
2018-06-12T09:56:51.625Z,1.93
2018-06-12T09:59:19.625Z,2.50
2018-06-12T10:01:47.641Z,2.37
2018-06-12T10:04:15.673Z,2.17
2018-06-12T10:06:43.696Z,2.30
2018-06-12T10:09:11.738Z,1.97
2018-06-12T10:11:39.772Z,2.80
2018-06-12T10:14:07.796Z,2.00
2018-06-12T10:16:35.816Z,2.13
2018-06-12T10:19:03.814Z,2.23
2018-06-12T10:21:31.808Z,1.50
2018-06-12T10:23:59.860Z,2.40
2018-06-12T10:26:27.841Z,2.03
2018-06-12T10:28:55.825Z,2.10
2018-06-12T10:31:23.869Z,2.43
2018-06-12T10:33:51.856Z,2.40
2018-06-12T10:36:19.897Z,2.20
2018-06-12T10:38:47.914Z,3.80
2018-06-12T10:41:15.952Z,2.10
2018-06-12T10:43:43.979Z,2.23
2018-06-12T10:46:11.980Z,2.73
2018-06-12T10:48:39.965Z,2.57
2018-06-12T10:51:07.986Z,2.20
2018-06-12T10:53:35.970Z,2.77
2018-06-12T10:56:04.058Z,1.70
2018-06-12T10:58:32.048Z,2.00
2018-06-12T11:01:00.080Z,2.47
2018-06-12T11:03:28.096Z,2.73
2018-06-12T11:05:56.091Z,1.80
2018-06-12T11:08:24.102Z,2.03
2018-06-12T11:10:52.153Z,2.10
2018-06-12T11:13:20.135Z,2.90
2018-06-12T11:15:48.184Z,2.03
2018-06-12T11:18:16.205Z,1.90
2018-06-12T11:20:44.261Z,2.80
2018-06-12T11:23:12.268Z,1.90
2018-06-12T11:25:40.290Z,1.90
2018-06-12T11:28:08.425Z,1.60
2018-06-12T11:30:36.445Z,2.00
2018-06-12T11:33:04.448Z,2.13
2018-06-12T11:35:32.449Z,2.07
2018-06-12T11:38:00.462Z,1.83
2018-06-12T11:40:28.495Z,2.30
2018-06-12T11:42:56.499Z,2.43
2018-06-12T11:45:24.542Z,2.60
2018-06-12T11:47:52.559Z,2.83
2018-06-12T11:50:20.582Z,2.23
2018-06-12T11:52:48.576Z,2.27
2018-06-12T11:55:16.559Z,2.40
2018-06-12T11:57:44.535Z,2.13
2018-06-12T12:00:12.532Z,2.20
2018-06-12T12:02:40.536Z,1.70
2018-06-12T12:05:08.545Z,2.00
2018-06-12T12:07:36.572Z,1.83
2018-06-12T12:10:04.593Z,2.00
2018-06-12T12:12:32.585Z,1.93
2018-06-12T12:15:00.658Z,1.83
2018-06-12T12:17:28.656Z,1.60
2018-06-12T12:19:56.729Z,2.00
2018-06-12T12:22:24.744Z,1.80
2018-06-12T12:24:52.773Z,2.60
2018-06-12T12:27:20.831Z,2.20
2018-06-12T12:29:48.863Z,1.60
2018-06-12T12:32:16.945Z,1.83
2018-06-12T12:34:44.954Z,1.57
2018-06-12T12:37:12.956Z,1.50
2018-06-12T12:39:40.987Z,1.77
2018-06-12T12:42:09.017Z,1.70
2018-06-12T12:44:37.050Z,1.50
2018-06-12T12:47:05.050Z,1.87
2018-06-12T12:49:33.053Z,1.63
2018-06-12T12:52:01.092Z,2.20
2018-06-12T12:54:29.148Z,1.83
2018-06-12T12:56:57.189Z,1.90
2018-06-12T12:59:25.188Z,2.33
2018-06-12T13:01:53.173Z,3.07
2018-06-12T13:04:21.152Z,1.80
2018-06-12T13:06:49.196Z,2.20
2018-06-12T13:09:17.218Z,2.17
2018-06-12T13:11:45.203Z,1.73
2018-06-12T13:14:13.188Z,1.60
2018-06-12T13:16:41.203Z,1.83
2018-06-12T13:19:09.228Z,1.90
2018-06-12T13:21:37.393Z,1.90
2018-06-12T13:24:05.417Z,2.10
2018-06-12T13:26:33.446Z,1.37
2018-06-12T13:29:01.427Z,1.70
2018-06-12T13:31:29.400Z,1.90
2018-06-12T13:33:57.466Z,2.60
2018-06-12T13:36:25.433Z,2.37
2018-06-12T13:38:53.437Z,2.43
2018-06-12T13:41:21.462Z,1.70
2018-06-12T13:43:49.453Z,1.87
2018-06-12T13:46:17.473Z,1.60
2018-06-12T13:48:45.581Z,2.00
2018-06-12T13:51:13.596Z,1.97
2018-06-12T13:53:41.588Z,2.30
2018-06-12T13:56:09.657Z,2.33
2018-06-12T13:58:37.648Z,1.77
2018-06-12T14:01:05.716Z,2.03
2018-06-12T14:03:33.787Z,1.83
2018-06-12T14:06:01.801Z,2.63
2018-06-12T14:08:29.788Z,2.77
2018-06-12T14:10:57.821Z,2.03
2018-06-12T14:13:25.881Z,2.10
2018-06-12T14:15:53.837Z,2.47
2018-06-12T14:18:21.833Z,2.40
2018-06-12T14:20:49.894Z,2.30
2018-06-12T14:23:17.928Z,2.70
2018-06-12T14:25:45.932Z,2.13
2018-06-12T14:28:14.017Z,2.23
2018-06-12T14:30:41.978Z,2.40
2018-06-12T14:33:09.963Z,2.13
2018-06-12T14:35:37.960Z,2.30
2018-06-12T14:38:06.005Z,2.83
2018-06-12T14:40:34.046Z,2.50
2018-06-12T14:43:02.041Z,2.60
2018-06-12T14:45:30.053Z,2.30
2018-06-12T14:47:58.124Z,2.30
2018-06-12T14:50:26.174Z,2.20
2018-06-12T14:52:54.149Z,2.90
2018-06-12T14:55:22.194Z,2.33
2018-06-12T14:57:50.208Z,2.63
2018-06-12T15:00:18.345Z,2.80
2018-06-12T15:02:46.318Z,2.40
2018-06-12T15:05:14.387Z,1.80
2018-06-12T15:07:42.339Z,2.60
2018-06-12T15:10:10.310Z,2.27
2018-06-12T15:12:38.357Z,2.10
2018-06-12T15:15:06.308Z,2.20
2018-06-12T15:17:34.338Z,1.80
2018-06-12T15:20:02.368Z,2.00
2018-06-12T15:22:30.357Z,1.53
2018-06-12T15:24:58.373Z,2.23
2018-06-12T15:27:26.416Z,2.40
2018-06-12T15:29:54.425Z,2.03
2018-06-12T15:32:22.418Z,2.47
2018-06-12T15:34:50.433Z,2.17
2018-06-12T15:37:18.469Z,2.30
2018-06-12T15:39:46.489Z,2.40
2018-06-12T15:42:14.484Z,2.47
2018-06-12T15:44:42.505Z,2.20
2018-06-12T15:47:10.528Z,2.90
2018-06-12T15:49:38.556Z,2.30
2018-06-12T15:52:06.702Z,1.83
2018-06-12T15:54:34.709Z,2.03
2018-06-12T15:57:02.734Z,2.07
2018-06-12T15:59:30.724Z,1.87
2018-06-12T16:01:58.756Z,1.80
2018-06-12T16:04:26.829Z,2.73
2018-06-12T16:06:54.880Z,2.30
2018-06-12T16:09:22.917Z,1.63
2018-06-12T16:11:50.922Z,2.10
2018-06-12T16:14:18.925Z,2.10
2018-06-12T16:16:46.985Z,2.03
2018-06-12T16:19:15.029Z,1.70
2018-06-12T16:21:42.972Z,2.33
2018-06-12T16:24:10.977Z,1.90
2018-06-12T16:26:38.978Z,2.10
2018-06-12T16:29:07.132Z,2.33
2018-06-12T16:31:35.108Z,2.00
2018-06-12T16:34:03.110Z,5.10
2018-06-12T16:36:31.126Z,2.10
2018-06-12T16:38:59.177Z,1.93
2018-06-12T16:41:27.268Z,3.60
2018-06-12T16:43:55.249Z,4.40
2018-06-12T16:46:23.276Z,2.13
2018-06-12T16:48:51.259Z,1.57
2018-06-12T16:51:19.245Z,2.00
2018-06-12T16:53:47.246Z,2.63
2018-06-12T16:56:15.307Z,2.30
2018-06-12T16:58:43.327Z,1.83
2018-06-12T17:01:11.434Z,1.90
2018-06-12T17:03:39.540Z,1.90
2018-06-12T17:06:07.561Z,2.00
2018-06-12T17:08:35.668Z,1.97
2018-06-12T17:11:03.720Z,1.60
2018-06-12T17:13:31.781Z,1.93
2018-06-12T17:15:59.796Z,2.00
2018-06-12T17:18:27.828Z,2.17
2018-06-12T17:20:55.838Z,2.20
2018-06-12T17:23:23.853Z,2.50
2018-06-12T17:25:51.877Z,2.37
2018-06-12T17:28:19.915Z,2.00
2018-06-12T17:30:47.907Z,2.07
2018-06-12T17:33:15.960Z,1.83
2018-06-12T17:35:43.977Z,1.90
2018-06-12T17:38:11.992Z,2.47
2018-06-12T17:40:40.021Z,1.83
2018-06-12T17:43:08.060Z,2.37
2018-06-12T17:45:36.092Z,2.60
2018-06-12T17:48:04.092Z,2.23
2018-06-12T17:50:32.081Z,2.07
2018-06-12T17:53:00.126Z,2.03
2018-06-12T17:55:28.167Z,2.20
2018-06-12T17:57:56.156Z,2.90
2018-06-12T18:00:24.153Z,2.00
2018-06-12T18:02:52.205Z,1.60
2018-06-12T18:05:20.214Z,1.97
2018-06-12T18:07:48.535Z,2.03
2018-06-12T18:10:16.577Z,1.80
2018-06-12T18:12:44.645Z,1.97
2018-06-12T18:15:12.707Z,2.40
2018-06-12T18:17:40.744Z,1.80
2018-06-12T18:20:08.756Z,1.60
2018-06-12T18:22:36.785Z,2.40
2018-06-12T18:25:04.797Z,2.10
2018-06-12T18:27:32.824Z,2.23
2018-06-12T18:30:00.841Z,1.80
2018-06-12T18:32:28.840Z,1.97
2018-06-12T18:34:56.869Z,1.70
2018-06-12T18:37:25.056Z,1.70
2018-06-12T18:39:53.026Z,1.90
2018-06-12T18:42:21.033Z,1.70
2018-06-12T18:44:49.055Z,2.00
2018-06-12T18:47:17.032Z,1.70
2018-06-12T18:49:45.052Z,1.97
2018-06-12T18:52:13.044Z,1.73
2018-06-12T18:54:41.073Z,2.00
2018-06-12T18:57:09.117Z,2.80
2018-06-12T18:59:37.181Z,2.20
2018-06-12T19:02:05.220Z,2.23
2018-06-12T19:04:33.234Z,2.87
2018-06-12T19:07:01.316Z,2.70
2018-06-12T19:09:29.321Z,2.43
2018-06-12T19:11:57.341Z,2.13
2018-06-12T19:14:25.352Z,2.40
2018-06-12T19:16:53.377Z,2.00
2018-06-12T19:19:21.479Z,2.00
2018-06-12T19:21:49.535Z,2.53
2018-06-12T19:24:17.572Z,2.50
2018-06-12T19:26:45.639Z,2.30
2018-06-12T19:29:13.684Z,2.33
2018-06-12T19:31:41.796Z,2.20
2018-06-12T19:34:09.829Z,2.30
2018-06-12T19:36:37.876Z,2.30
2018-06-12T19:39:07.172Z,1.83
2018-06-12T19:41:35.363Z,1.50
2018-06-12T19:44:03.370Z,2.10
2018-06-12T19:46:31.378Z,1.97
2018-06-12T19:48:59.380Z,1.70
2018-06-12T19:51:27.433Z,1.73
2018-06-12T19:53:55.542Z,1.50
2018-06-12T19:56:23.536Z,1.53
2018-06-12T19:58:51.557Z,1.60
2018-06-12T20:01:19.555Z,1.77
2018-06-12T20:03:47.619Z,1.33
2018-06-12T20:06:15.669Z,1.33
2018-06-12T20:08:43.728Z,2.70
2018-06-12T20:11:12.005Z,2.67
2018-06-12T20:13:40.007Z,1.40
2018-06-12T20:16:08.041Z,1.40
2018-06-12T20:18:36.047Z,1.10
2018-06-12T20:21:04.065Z,1.53
2018-06-12T20:23:32.066Z,1.80
2018-06-12T20:26:00.080Z,1.30
2018-06-12T20:28:28.068Z,1.17
2018-06-12T20:30:56.072Z,1.70
2018-06-12T20:33:24.093Z,1.70
2018-06-12T20:35:52.093Z,1.47
2018-06-12T20:38:20.092Z,1.70
2018-06-12T20:40:48.098Z,1.63
2018-06-12T20:43:16.108Z,1.60
2018-06-12T20:45:44.138Z,1.57
2018-06-12T20:48:12.114Z,1.53
2018-06-12T20:50:40.124Z,1.80
2018-06-12T20:53:08.137Z,1.60
2018-06-12T20:55:36.173Z,1.50
2018-06-12T20:58:04.189Z,2.00
2018-06-12T21:00:32.184Z,1.67
2018-06-12T21:03:00.208Z,1.60
2018-06-12T21:05:28.220Z,1.63
2018-06-12T21:07:56.324Z,2.60
2018-06-12T21:10:24.356Z,1.50
2018-06-12T21:12:52.410Z,2.47
2018-06-12T21:15:20.382Z,1.43
2018-06-12T21:17:49.421Z,1.80
2018-06-12T21:20:17.474Z,1.60
2018-06-12T21:22:45.468Z,1.80
2018-06-12T21:25:13.533Z,1.90
2018-06-12T21:27:41.551Z,1.90
2018-06-12T21:30:09.572Z,1.63
2018-06-12T21:32:37.607Z,1.90
2018-06-12T21:35:05.705Z,1.60
2018-06-12T21:37:33.719Z,1.53
2018-06-12T21:40:01.719Z,1.67
2018-06-12T21:42:29.728Z,1.90
2018-06-12T21:44:57.738Z,2.43
2018-06-12T21:47:25.748Z,1.53
2018-06-12T21:49:53.744Z,1.83
2018-06-12T21:52:21.752Z,2.33
2018-06-12T21:54:49.754Z,2.10
2018-06-12T21:57:17.741Z,2.30
2018-06-12T21:59:45.756Z,2.60
2018-06-12T22:02:13.728Z,2.30
2018-06-12T22:04:41.772Z,3.03
2018-06-12T22:07:09.774Z,2.60
2018-06-12T22:09:37.796Z,2.33
2018-06-12T22:12:05.845Z,2.80
2018-06-12T22:14:33.825Z,2.63
2018-06-12T22:17:01.834Z,2.50
2018-06-12T22:19:29.804Z,2.70
2018-06-12T22:21:57.889Z,2.97
2018-06-12T22:24:26.965Z,3.60
2018-06-12T22:26:54.996Z,3.03
2018-06-12T22:29:22.992Z,3.13
2018-06-12T22:31:51.064Z,3.10
2018-06-12T22:34:19.077Z,3.50
2018-06-12T22:36:47.144Z,2.63
2018-06-12T22:39:15.166Z,3.30
2018-06-12T22:41:44.080Z,3.87
2018-06-12T22:44:12.088Z,3.30
2018-06-12T22:46:40.113Z,2.70
2018-06-12T22:49:08.111Z,2.20
2018-06-12T22:51:36.136Z,3.00
2018-06-12T22:54:04.147Z,2.33
2018-06-12T22:56:32.194Z,3.10
2018-06-12T22:59:00.165Z,3.00
2018-06-12T23:01:28.186Z,3.10
2018-06-12T23:03:56.201Z,3.27
2018-06-12T23:06:24.218Z,2.90
2018-06-12T23:08:52.252Z,2.80
2018-06-12T23:11:20.265Z,2.60
2018-06-12T23:13:48.273Z,2.80
2018-06-12T23:16:16.264Z,3.20
2018-06-12T23:18:45.124Z,3.07
2018-06-12T23:21:24.564Z,3.03
2018-06-12T23:23:52.546Z,2.73
2018-06-12T23:26:20.558Z,3.10
2018-06-12T23:28:49.395Z,3.50
2018-06-12T23:31:17.455Z,3.10
2018-06-12T23:33:48.556Z,3.10
2018-06-12T23:36:16.561Z,2.77
2018-06-12T23:38:44.571Z,2.63
2018-06-12T23:41:12.701Z,3.00
2018-06-12T23:43:40.732Z,3.40
2018-06-12T23:46:08.733Z,3.03
2018-06-12T23:48:36.725Z,2.90
2018-06-12T23:51:05.532Z,3.47
2018-06-12T23:53:33.524Z,3.10
2018-06-12T23:56:01.666Z,2.37
2018-06-12T23:58:29.740Z,3.27
